createdAt,value
2023-02-03T00:01:56.980Z,98913.19
2023-02-03T00:04:23.551Z,98916.63
2023-02-03T00:06:51.020Z,98922.56
2023-02-03T00:09:17.786Z,98915.06
2023-02-03T00:11:44.365Z,98909.19
2023-02-03T00:14:10.943Z,98915.06
2023-02-03T00:16:37.545Z,98913.47
2023-02-03T00:19:04.100Z,98911.00
2023-02-03T00:21:30.658Z,98921.16
2023-02-03T00:23:57.217Z,98913.59
2023-02-03T00:26:26.032Z,98918.53
2023-02-03T00:28:52.626Z,98923.69
2023-02-03T00:31:21.933Z,98927.88
2023-02-03T00:33:54.142Z,98920.38
2023-02-03T00:36:20.675Z,98923.69
2023-02-03T00:38:48.979Z,98921.16
2023-02-03T00:41:16.094Z,98917.63
2023-02-03T00:43:42.894Z,98922.78
2023-02-03T00:46:09.616Z,98928.63
2023-02-03T00:48:36.332Z,98924.34
2023-02-03T00:51:02.924Z,98928.63
2023-02-03T00:53:29.447Z,98933.69
2023-02-03T00:55:56.102Z,98939.59
2023-02-03T00:58:22.665Z,98938.72
2023-02-03T01:00:49.213Z,98931.94
2023-02-03T01:03:17.109Z,98935.41
2023-02-03T01:05:43.660Z,98946.38
2023-02-03T01:08:10.218Z,98931.16
2023-02-03T01:10:38.622Z,98931.06
2023-02-03T01:13:05.145Z,98939.38
2023-02-03T01:15:31.752Z,98940.81
2023-02-03T01:17:58.395Z,98948.41
2023-02-03T01:20:25.457Z,98949.22
2023-02-03T01:22:52.299Z,98942.50
2023-02-03T01:25:18.873Z,98940.16
2023-02-03T01:27:45.404Z,98940.91
2023-02-03T01:30:12.326Z,98931.69
2023-02-03T01:32:38.896Z,98932.44
2023-02-03T01:35:05.782Z,98929.66
2023-02-03T01:37:32.343Z,98931.47
2023-02-03T01:39:58.900Z,98929.72
2023-02-03T01:42:25.463Z,98938.31
2023-02-03T01:44:52.647Z,98929.00
2023-02-03T01:47:28.171Z,98937.44
2023-02-03T01:49:57.838Z,98928.19
2023-02-03T01:52:25.110Z,98934.97
2023-02-03T01:54:54.330Z,98933.41
2023-02-03T01:57:26.910Z,98930.88
2023-02-03T01:59:56.389Z,98933.34
2023-02-03T02:02:23.217Z,98930.72
2023-02-03T02:04:59.415Z,98929.81
2023-02-03T02:07:26.288Z,98927.19
2023-02-03T02:09:52.859Z,98918.63
2023-02-03T02:12:19.448Z,98928.88
2023-02-03T02:14:47.678Z,98926.28
2023-02-03T02:17:42.169Z,98927.16
2023-02-03T02:20:21.001Z,98942.22
2023-02-03T02:23:19.926Z,98938.81
2023-02-03T02:25:52.093Z,98940.56
2023-02-03T02:28:52.493Z,98943.09
2023-02-03T02:31:44.290Z,98943.88
2023-02-03T02:34:43.463Z,98942.97
2023-02-03T02:37:37.456Z,98946.34
2023-02-03T02:40:21.831Z,98935.38
2023-02-03T02:42:54.259Z,98937.91
2023-02-03T02:45:27.570Z,98945.53
2023-02-03T02:48:02.735Z,98941.34
2023-02-03T02:50:34.445Z,98943.97
2023-02-03T02:53:03.531Z,98941.50
2023-02-03T02:55:33.750Z,98938.97
2023-02-03T02:58:06.124Z,98940.63
2023-02-03T03:00:35.271Z,98945.69
2023-02-03T03:03:19.966Z,98944.97
2023-02-03T03:06:10.702Z,98950.78
2023-02-03T03:08:39.720Z,98953.31
2023-02-03T03:11:07.262Z,98949.22
2023-02-03T03:13:45.125Z,98948.41
2023-02-03T03:16:14.436Z,98956.19
2023-02-03T03:18:51.486Z,98949.47
2023-02-03T03:21:25.140Z,98945.06
2023-02-03T03:23:54.883Z,98945.97
2023-02-03T03:26:32.794Z,98937.44
2023-02-03T03:29:17.497Z,98944.09
2023-02-03T03:31:45.180Z,98941.50
2023-02-03T03:34:13.278Z,98939.09
2023-02-03T03:36:46.287Z,98944.09
2023-02-03T03:39:26.020Z,98942.28
2023-02-03T03:42:31.334Z,98943.34
2023-02-03T03:45:04.009Z,98932.34
2023-02-03T03:47:59.340Z,98932.34
2023-02-03T03:50:30.841Z,98944.97
2023-02-03T03:53:01.260Z,98944.97
2023-02-03T03:55:31.310Z,98939.97
2023-02-03T03:58:30.004Z,98939.06
2023-02-03T04:01:01.266Z,98937.38
2023-02-03T04:03:33.068Z,98940.81
2023-02-03T04:05:59.578Z,98950.00
2023-02-03T04:08:26.113Z,98950.00
2023-02-03T04:10:52.719Z,98952.53
2023-02-03T04:13:20.503Z,98959.47
2023-02-03T04:15:47.160Z,98960.22
2023-02-03T04:18:14.900Z,98955.19
2023-02-03T04:20:42.272Z,98955.19
2023-02-03T04:23:09.728Z,98966.16
2023-02-03T04:25:36.301Z,98962.84
2023-02-03T04:28:03.530Z,98961.97
2023-02-03T04:30:30.292Z,98969.47
2023-02-03T04:32:56.953Z,98967.81
2023-02-03T04:35:23.697Z,98967.03
2023-02-03T04:37:50.249Z,98962.75
2023-02-03T04:40:17.208Z,98971.28
2023-02-03T04:42:43.734Z,98970.47
2023-02-03T04:45:11.613Z,98970.47
2023-02-03T04:47:39.350Z,98968.81
2023-02-03T04:50:06.233Z,98969.66
2023-02-03T04:52:32.749Z,98969.66
2023-02-03T04:54:59.360Z,98966.28
2023-02-03T04:57:25.871Z,98974.72
2023-02-03T04:59:52.386Z,98973.94
2023-02-03T05:02:19.051Z,98982.28
2023-02-03T05:04:45.572Z,98978.06
2023-02-03T05:07:12.269Z,98977.25
2023-02-03T05:09:38.845Z,98983.25
2023-02-03T05:12:05.636Z,98980.88
2023-02-03T05:14:32.154Z,98985.06
2023-02-03T05:16:58.786Z,98987.50
2023-02-03T05:19:25.385Z,98986.78
2023-02-03T05:21:52.044Z,98988.50
2023-02-03T05:24:18.621Z,98993.69
2023-02-03T05:26:45.225Z,98987.78
2023-02-03T05:29:11.913Z,98991.16
2023-02-03T05:31:38.608Z,98994.56
2023-02-03T05:34:05.211Z,98998.03
2023-02-03T08:05:27.326Z,99156.19
2023-02-03T08:07:53.900Z,99151.53
2023-02-03T08:10:20.487Z,99158.59
2023-02-03T08:12:48.071Z,99159.16
2023-02-03T08:15:14.729Z,99163.78
2023-02-03T08:17:42.114Z,99162.97
2023-02-03T08:20:10.551Z,99164.84
2023-02-03T08:22:37.326Z,99159.09
2023-02-03T08:25:04.070Z,99165.31
2023-02-03T08:27:32.178Z,99164.72
2023-02-03T08:29:59.127Z,99158.81
2023-02-03T08:32:26.998Z,99164.94
2023-02-03T08:34:54.060Z,99156.44
2023-02-03T08:37:24.389Z,99169.34
2023-02-03T08:39:51.824Z,99169.50
2023-02-03T08:42:19.524Z,99168.19
2023-02-03T08:44:46.198Z,99169.28
2023-02-03T08:47:13.119Z,99172.97
2023-02-03T08:49:39.787Z,99167.47
2023-02-03T08:52:12.275Z,99171.66
2023-02-03T08:54:38.962Z,99166.44
2023-02-03T08:57:06.130Z,99172.53
2023-02-03T08:59:36.096Z,99174.38
2023-02-03T09:02:04.597Z,99171.22
2023-02-03T09:04:33.450Z,99169.94
2023-02-03T09:07:01.032Z,99170.03
2023-02-03T09:09:29.041Z,99165.78
2023-02-03T09:12:02.280Z,99155.47
2023-02-03T09:14:30.127Z,99160.16
2023-02-03T09:16:57.036Z,99160.28
2023-02-03T09:19:23.690Z,99153.50
2023-02-03T09:21:50.730Z,99156.75
2023-02-03T09:24:18.597Z,99165.13
2023-02-03T09:26:45.699Z,99163.56
2023-02-03T09:29:12.340Z,99160.38
2023-02-03T09:31:38.930Z,99150.50
2023-02-03T09:34:05.526Z,99152.66
2023-02-03T09:36:32.085Z,99153.53
2023-02-03T09:38:58.816Z,99155.88
2023-02-03T09:41:46.050Z,99157.38
2023-02-03T09:44:18.641Z,99159.06
2023-02-03T09:46:51.816Z,99152.91
2023-02-03T09:49:21.271Z,99157.03
2023-02-03T09:51:52.798Z,99152.13
2023-02-03T09:54:26.517Z,99153.84
2023-02-03T09:56:55.724Z,99146.25
2023-02-03T09:59:23.032Z,99150.25
2023-02-03T10:02:00.100Z,99151.84
2023-02-03T10:04:42.378Z,99152.66
2023-02-03T10:07:25.295Z,99148.94
2023-02-03T10:10:04.231Z,99135.31
2023-02-03T10:12:51.961Z,99143.69
2023-02-03T10:15:37.078Z,99144.13
2023-02-03T10:18:11.951Z,99138.03
2023-02-03T10:20:58.884Z,99138.06
2023-02-03T10:23:39.008Z,99133.31
2023-02-03T10:26:18.721Z,99140.19
2023-02-03T10:28:55.439Z,99136.44
2023-02-03T10:31:25.341Z,99145.88
2023-02-03T10:34:00.083Z,99145.22
2023-02-03T10:36:50.608Z,99145.09
2023-02-03T10:39:17.128Z,99132.19
2023-02-03T10:41:43.694Z,99128.06
2023-02-03T10:44:14.830Z,99134.19
2023-02-03T10:46:44.096Z,99133.38
2023-02-03T10:49:13.933Z,99130.84
2023-02-03T10:51:49.067Z,99122.91
2023-02-03T10:54:32.417Z,99115.63
2023-02-03T10:57:14.175Z,99119.03
2023-02-03T10:59:48.316Z,99113.00
2023-02-03T11:02:28.828Z,99114.22
2023-02-03T11:05:24.865Z,99102.78
2023-02-03T11:07:52.355Z,99108.38
2023-02-03T11:10:28.227Z,99103.63
2023-02-03T11:13:26.288Z,99098.03
2023-02-03T11:16:01.788Z,99099.31
2023-02-03T11:18:37.666Z,99108.31
2023-02-03T11:21:19.932Z,99110.06
2023-02-03T11:23:52.503Z,99112.63
2023-02-03T11:26:28.964Z,99111.31
2023-02-03T11:28:58.778Z,99108.97
2023-02-03T11:31:32.412Z,99106.69
2023-02-03T11:34:04.407Z,99115.41
2023-02-03T11:36:34.499Z,99109.00
2023-02-03T11:39:16.108Z,99107.69
2023-02-03T11:41:42.859Z,99110.75
2023-02-03T11:44:21.239Z,99112.22
2023-02-03T11:46:52.255Z,99105.94
2023-02-03T11:49:27.637Z,99107.63
2023-02-03T11:52:26.014Z,99098.22
2023-02-03T11:55:08.086Z,99096.50
2023-02-03T11:58:01.791Z,99096.41
2023-02-03T12:00:37.645Z,99088.78
2023-02-03T12:03:19.197Z,99095.97
2023-02-03T12:06:18.357Z,99096.38
2023-02-03T12:09:17.906Z,99090.69
2023-02-03T12:11:50.384Z,99098.44
2023-02-03T12:14:32.048Z,99088.44
2023-02-03T12:17:12.278Z,99091.69
2023-02-03T12:20:01.197Z,99096.22
2023-02-03T12:22:50.792Z,99104.53
2023-02-03T12:25:33.498Z,99108.53
2023-02-03T12:28:27.417Z,99102.34
2023-02-03T12:31:07.642Z,99110.00
2023-02-03T12:33:40.924Z,99109.81
2023-02-03T12:36:40.152Z,99107.00
2023-02-03T12:39:25.177Z,99113.34
2023-02-03T12:42:18.586Z,99100.06
2023-02-03T12:44:57.302Z,99124.34
2023-02-03T12:47:32.039Z,99115.50
2023-02-03T12:50:27.642Z,99115.06
2023-02-03T12:53:00.622Z,99112.25
2023-02-03T12:55:41.733Z,99112.06
2023-02-03T12:58:20.213Z,99117.63
2023-02-03T13:00:57.849Z,99108.94
2023-02-03T13:03:32.751Z,99107.97
2023-02-03T13:06:15.100Z,99108.47
2023-02-03T13:08:51.995Z,99103.19
2023-02-03T13:11:37.047Z,99109.88
2023-02-03T13:14:20.693Z,99126.63
2023-02-03T13:16:53.551Z,99111.19
2023-02-03T13:19:28.587Z,99119.72
2023-02-03T13:21:55.329Z,99117.09
2023-02-03T13:24:26.819Z,99120.41
2023-02-03T13:27:20.453Z,99117.09
2023-02-03T13:29:49.701Z,99117.84
2023-02-03T13:32:38.706Z,99114.34
2023-02-03T13:35:33.216Z,99131.25
2023-02-03T13:38:44.933Z,99114.13
2023-02-03T13:41:24.368Z,99117.25
2023-02-03T13:57:21.728Z,99122.00
2023-02-03T13:59:57.235Z,99127.03
2023-02-03T14:02:24.328Z,99125.31
2023-02-03T14:04:54.414Z,99122.84
2023-02-03T14:07:24.727Z,99129.72
2023-02-03T14:10:14.050Z,99116.22
2023-02-03T14:12:49.484Z,99128.91
2023-02-03T14:15:32.088Z,99115.28
2023-02-03T14:18:32.546Z,99121.34
2023-02-03T14:38:11.172Z,99110.00
2023-02-03T14:41:03.166Z,99110.00
2023-02-03T14:43:48.337Z,99111.75
2023-02-03T14:46:21.983Z,99106.53
2023-02-03T14:49:20.751Z,99108.28
2023-02-03T14:52:05.714Z,99108.13
2023-02-03T14:54:54.396Z,99112.38
2023-02-03T14:57:35.751Z,99112.16
2023-02-03T15:00:05.584Z,99113.03
2023-02-03T15:02:34.597Z,99107.81
2023-02-03T15:05:13.610Z,99102.66
2023-02-03T15:07:45.415Z,99109.41
2023-02-03T15:10:29.094Z,99093.97
2023-02-03T15:12:58.183Z,99098.47
2023-02-03T15:15:34.868Z,99097.44
2023-02-03T15:18:21.721Z,99100.78
2023-02-03T15:20:54.064Z,99101.63
2023-02-03T15:23:38.586Z,99103.13
2023-02-03T15:26:18.547Z,99107.38
2023-02-03T15:28:54.277Z,99106.28
2023-02-03T15:31:28.318Z,99111.97
2023-02-03T15:33:58.729Z,99115.28
2023-02-03T15:36:43.102Z,99118.69
2023-02-03T15:39:16.614Z,99113.25
2023-02-03T15:41:44.525Z,99113.09
2023-02-03T15:44:30.943Z,99112.16
2023-02-03T15:46:58.307Z,99123.72
2023-02-03T15:49:32.299Z,99117.81
2023-02-03T15:52:11.491Z,99119.59
2023-02-03T15:54:42.545Z,99130.59
2023-02-03T15:57:16.561Z,99122.34
2023-02-03T15:59:51.034Z,99124.00
2023-02-03T16:02:34.481Z,99115.69
2023-02-03T16:05:31.977Z,99116.56
2023-02-03T16:08:37.753Z,99114.66
2023-02-03T16:11:37.009Z,99126.19
2023-02-03T16:14:34.057Z,99127.75
2023-02-03T16:17:05.447Z,99121.84
2023-02-03T16:19:37.999Z,99119.25
2023-02-03T16:22:04.945Z,99122.56
2023-02-03T16:24:41.432Z,99129.34
2023-02-03T16:27:26.309Z,99119.09
2023-02-03T16:30:12.217Z,99118.81
2023-02-03T16:32:57.806Z,99126.44
2023-02-03T16:35:43.325Z,99114.28
2023-02-03T16:38:35.913Z,99120.38
2023-02-03T16:41:31.241Z,99116.91
2023-02-03T16:44:16.644Z,99118.47
2023-02-03T16:47:04.659Z,99110.91
2023-02-03T16:49:49.806Z,99114.28
2023-02-03T16:52:16.640Z,99120.03
2023-02-03T16:54:43.192Z,99122.56
2023-02-03T16:57:09.706Z,99121.00
2023-02-03T16:59:36.249Z,99122.72
2023-02-03T17:02:02.817Z,99121.78
2023-02-03T17:04:29.438Z,99108.78
2023-02-03T17:06:56.016Z,99122.31
2023-02-03T17:09:24.938Z,99112.97
2023-02-03T17:11:51.750Z,99107.78
2023-02-03T17:14:18.382Z,99108.47
2023-02-03T17:16:45.009Z,99111.09
2023-02-03T17:19:12.545Z,99105.78
2023-02-03T17:21:39.423Z,99104.84
2023-02-03T17:24:06.339Z,99109.03
2023-02-03T17:26:34.261Z,99099.75
2023-02-03T17:29:03.566Z,99103.88
2023-02-03T17:31:30.546Z,99105.53
2023-02-03T17:33:57.847Z,99104.69
2023-02-03T17:36:24.588Z,99107.13
2023-02-03T17:55:19.855Z,99109.72
2023-02-03T17:57:46.430Z,99100.34
2023-02-03T18:00:13.489Z,99090.59
2023-02-03T18:02:40.267Z,99092.47
2023-02-03T18:05:07.578Z,99095.88
2023-02-03T18:07:34.259Z,99087.22
2023-02-03T18:10:00.951Z,99083.97
2023-02-03T18:12:27.683Z,99093.28
2023-02-03T18:14:54.342Z,99099.09
2023-02-03T18:17:20.932Z,99089.78
2023-02-03T18:19:54.775Z,99089.63
2023-02-03T18:22:22.552Z,99082.88
2023-02-03T18:24:52.700Z,99080.69
2023-02-03T18:27:19.571Z,99084.06
2023-02-03T18:29:47.171Z,99080.59
2023-02-03T18:32:15.958Z,99087.34
2023-02-03T18:34:42.628Z,99088.25
2023-02-03T18:37:09.284Z,99089.88
2023-02-03T18:39:35.999Z,99086.47
2023-02-03T18:42:03.669Z,99086.47
2023-02-03T18:44:31.636Z,99075.38
2023-02-03T18:47:06.976Z,99087.28
2023-02-03T18:49:36.600Z,99088.25
2023-02-03T18:52:04.421Z,99079.03
2023-02-03T18:54:31.060Z,99071.28
2023-02-03T18:57:02.966Z,99074.84
2023-02-03T18:59:32.161Z,99076.50
2023-02-03T19:01:58.887Z,99079.03
2023-02-03T19:04:25.661Z,99070.44
2023-02-03T19:06:52.903Z,99072.78
2023-02-03T19:09:22.370Z,99066.88
2023-02-03T19:11:49.325Z,99068.72
2023-02-03T19:14:16.489Z,99070.25
2023-02-03T19:16:43.831Z,99063.34
2023-02-03T19:19:13.352Z,99078.00
2023-02-03T19:21:39.914Z,99080.41
2023-02-03T19:24:07.149Z,99072.78
2023-02-03T19:26:34.061Z,99075.13
2023-02-03T19:29:00.842Z,99072.63
2023-02-03T19:31:27.901Z,99079.41
2023-02-03T19:33:58.938Z,99076.91
2023-02-03T19:36:29.545Z,99082.88
2023-02-03T19:38:56.906Z,99076.09
2023-02-03T19:41:26.034Z,99074.38
2023-02-03T19:43:52.725Z,99074.50
2023-02-03T19:46:21.779Z,99071.22
2023-02-03T19:48:48.817Z,99068.59
2023-02-03T19:51:15.590Z,99077.13
2023-02-03T19:53:42.400Z,99072.94
2023-02-03T19:56:09.101Z,99076.28
2023-02-03T19:58:35.915Z,99082.88
2023-02-03T20:01:02.497Z,99079.41
2023-02-03T20:03:29.230Z,99082.06
2023-02-03T20:05:55.797Z,99087.91
2023-02-03T20:08:22.525Z,99087.03
2023-02-03T20:10:49.653Z,99083.72
2023-02-03T20:13:16.262Z,99077.81
2023-02-03T20:15:44.367Z,99078.69
2023-02-03T20:18:11.199Z,99072.94
2023-02-03T20:20:37.906Z,99076.28
2023-02-03T20:23:04.486Z,99067.75
2023-02-03T20:25:31.334Z,99062.53
2023-02-03T20:27:59.650Z,99069.94
2023-02-03T20:30:26.272Z,99063.00
2023-02-03T20:32:54.853Z,99063.00
2023-02-03T20:35:23.895Z,99069.69
2023-02-03T20:37:50.996Z,99061.28
2023-02-03T20:40:19.332Z,99055.31
2023-02-03T20:42:47.343Z,99057.03
2023-02-03T20:45:18.041Z,99055.53
2023-02-03T20:47:45.143Z,99053.88
2023-02-03T20:50:23.608Z,99057.34
2023-02-03T20:52:52.651Z,99051.19
2023-02-03T20:55:22.254Z,99062.06
2023-02-03T20:57:51.639Z,99056.25
2023-02-03T21:00:24.050Z,99052.94
2023-02-03T21:03:09.412Z,99056.19
2023-02-03T21:05:39.215Z,99052.00
2023-02-03T21:08:25.288Z,99050.41
2023-02-03T21:10:52.447Z,99040.19
2023-02-03T21:13:29.081Z,99046.25
2023-02-03T21:16:04.236Z,99042.84
2023-02-03T21:18:55.174Z,99046.16
2023-02-03T21:21:34.261Z,99045.22
2023-02-03T21:24:02.094Z,99045.94
2023-02-03T21:26:30.825Z,99049.41
2023-02-03T21:28:59.672Z,99058.59
2023-02-03T21:31:34.648Z,99050.00
2023-02-03T21:34:35.120Z,99059.22
2023-02-03T21:37:11.599Z,99060.97
2023-02-03T21:39:38.133Z,99054.19
2023-02-03T21:42:40.901Z,99050.97
2023-02-03T21:45:22.518Z,99048.22
2023-02-03T21:47:53.891Z,99057.44
2023-02-03T21:50:33.987Z,99060.00
2023-02-03T21:53:20.806Z,99057.34
2023-02-03T21:55:47.419Z,99049.06
2023-02-03T21:58:26.397Z,99042.16
2023-02-03T22:00:55.845Z,99043.72
2023-02-03T22:03:40.697Z,99054.81
2023-02-03T22:06:16.715Z,99051.38
2023-02-03T22:08:43.058Z,99044.50
2023-02-03T22:11:09.905Z,99044.50
2023-02-03T22:13:37.144Z,99037.81
2023-02-03T22:16:04.587Z,99044.44
2023-02-03T22:18:31.118Z,99051.03
2023-02-03T22:20:57.951Z,99048.50
2023-02-03T22:23:24.475Z,99043.31
2023-02-03T22:25:51.036Z,99039.00
2023-02-03T22:28:17.664Z,99040.66
2023-02-03T22:30:44.355Z,99037.97
2023-02-03T22:33:11.036Z,99037.00
2023-02-03T22:35:37.722Z,99040.31
2023-02-03T22:38:04.307Z,99039.50
2023-02-03T22:40:31.211Z,99033.72
2023-02-03T22:42:58.030Z,99040.31
2023-02-03T22:45:24.647Z,99044.47
2023-02-03T22:47:51.271Z,99041.34
2023-02-03T22:50:24.602Z,99044.72
2023-02-03T22:52:57.823Z,99037.00
2023-02-03T22:55:24.499Z,99035.34
2023-02-03T22:57:52.456Z,99037.16
2023-02-03T23:00:21.843Z,99032.75
2023-02-03T23:02:50.113Z,99029.31
2023-02-03T23:05:17.502Z,99033.56
2023-02-03T23:07:45.133Z,99035.91
2023-02-03T23:10:17.382Z,99034.78
2023-02-03T23:12:44.244Z,99033.94
2023-02-03T23:15:11.528Z,99042.41
2023-02-03T23:17:38.315Z,99033.84
2023-02-03T23:20:06.565Z,99038.06
2023-02-03T23:22:33.135Z,99039.97
2023-02-03T23:25:00.435Z,99036.69
2023-02-03T23:27:27.400Z,99035.81
2023-02-03T23:29:54.088Z,99038.25
2023-02-03T23:32:20.682Z,99040.88
2023-02-03T23:35:05.791Z,99042.50
2023-02-03T23:37:32.611Z,99045.00
2023-02-03T23:39:59.163Z,99039.03
2023-02-03T23:42:25.764Z,99038.88
2023-02-03T23:44:52.377Z,99033.75
2023-02-03T23:47:18.918Z,99036.97
2023-02-03T23:49:45.431Z,99031.00
2023-02-03T23:52:11.990Z,99037.75
2023-02-03T23:54:38.541Z,99035.31
2023-02-03T23:57:05.098Z,99038.63
2023-02-03T23:59:31.855Z,99042.09
